sensor_id;sensor_type;location;lat;lon;timestamp;P1;durP1;ratioP1;P2;durP2;ratioP2
77324;SDS011;66387;53.440;10.390;2023-02-15T00:01:15;60.13;;;26.97;;
77324;SDS011;66387;53.440;10.390;2023-02-15T00:03:40;49.60;;;24.20;;
77324;SDS011;66387;53.440;10.390;2023-02-15T00:06:06;50.28;;;23.60;;
77324;SDS011;66387;53.440;10.390;2023-02-15T00:08:32;41.72;;;22.23;;
77324;SDS011;66387;53.440;10.390;2023-02-15T00:11:04;49.83;;;22.03;;
77324;SDS011;66387;53.440;10.390;2023-02-15T00:13:34;54.63;;;22.63;;
77324;SDS011;66387;53.440;10.390;2023-02-15T00:16:04;74.30;;;24.45;;
77324;SDS011;66387;53.440;10.390;2023-02-15T00:18:32;54.25;;;21.25;;
77324;SDS011;66387;53.440;10.390;2023-02-15T00:20:57;53.70;;;21.42;;
77324;SDS011;66387;53.440;10.390;2023-02-15T00:23:23;40.00;;;21.92;;
77324;SDS011;66387;53.440;10.390;2023-02-15T00:25:50;50.95;;;21.38;;
77324;SDS011;66387;53.440;10.390;2023-02-15T00:28:16;43.73;;;22.67;;
77324;SDS011;66387;53.440;10.390;2023-02-15T00:30:41;42.57;;;20.70;;
77324;SDS011;66387;53.440;10.390;2023-02-15T00:33:06;43.63;;;23.10;;
77324;SDS011;66387;53.440;10.390;2023-02-15T00:35:31;44.63;;;20.63;;
77324;SDS011;66387;53.440;10.390;2023-02-15T00:37:57;38.63;;;22.20;;
77324;SDS011;66387;53.440;10.390;2023-02-15T00:40:22;53.43;;;22.63;;
77324;SDS011;66387;53.440;10.390;2023-02-15T00:42:47;43.50;;;22.63;;
77324;SDS011;66387;53.440;10.390;2023-02-15T00:45:13;54.83;;;25.05;;
77324;SDS011;66387;53.440;10.390;2023-02-15T00:47:38;44.53;;;23.57;;
77324;SDS011;66387;53.440;10.390;2023-02-15T00:50:03;72.87;;;23.40;;
77324;SDS011;66387;53.440;10.390;2023-02-15T00:52:30;61.35;;;23.90;;
77324;SDS011;66387;53.440;10.390;2023-02-15T00:54:55;43.65;;;23.83;;
77324;SDS011;66387;53.440;10.390;2023-02-15T00:57:20;38.67;;;22.27;;
77324;SDS011;66387;53.440;10.390;2023-02-15T00:59:46;53.37;;;23.83;;
77324;SDS011;66387;53.440;10.390;2023-02-15T01:02:11;64.73;;;26.17;;
77324;SDS011;66387;53.440;10.390;2023-02-15T01:04:36;53.20;;;23.60;;
77324;SDS011;66387;53.440;10.390;2023-02-15T01:07:01;47.07;;;22.40;;
77324;SDS011;66387;53.440;10.390;2023-02-15T01:09:28;42.40;;;23.65;;
77324;SDS011;66387;53.440;10.390;2023-02-15T01:11:53;57.85;;;22.77;;
77324;SDS011;66387;53.440;10.390;2023-02-15T01:14:19;46.80;;;20.67;;
77324;SDS011;66387;53.440;10.390;2023-02-15T01:16:44;55.58;;;21.48;;
77324;SDS011;66387;53.440;10.390;2023-02-15T01:19:09;39.73;;;22.53;;
77324;SDS011;66387;53.440;10.390;2023-02-15T01:21:34;46.33;;;22.17;;
77324;SDS011;66387;53.440;10.390;2023-02-15T01:24:00;80.32;;;25.40;;
77324;SDS011;66387;53.440;10.390;2023-02-15T01:26:26;51.97;;;22.42;;
77324;SDS011;66387;53.440;10.390;2023-02-15T01:28:51;71.30;;;21.80;;
77324;SDS011;66387;53.440;10.390;2023-02-15T01:31:20;45.05;;;21.42;;
77324;SDS011;66387;53.440;10.390;2023-02-15T01:33:46;43.95;;;21.02;;
77324;SDS011;66387;53.440;10.390;2023-02-15T01:36:12;39.33;;;21.35;;
77324;SDS011;66387;53.440;10.390;2023-02-15T01:38:38;42.72;;;21.67;;
77324;SDS011;66387;53.440;10.390;2023-02-15T01:41:04;53.45;;;21.85;;
77324;SDS011;66387;53.440;10.390;2023-02-15T01:43:49;49.65;;;20.25;;
77324;SDS011;66387;53.440;10.390;2023-02-15T01:46:17;48.05;;;22.45;;
77324;SDS011;66387;53.440;10.390;2023-02-15T01:48:50;38.85;;;18.65;;
77324;SDS011;66387;53.440;10.390;2023-02-15T01:51:22;48.45;;;20.33;;
77324;SDS011;66387;53.440;10.390;2023-02-15T01:53:54;33.97;;;19.10;;
77324;SDS011;66387;53.440;10.390;2023-02-15T01:56:25;51.20;;;17.85;;
77324;SDS011;66387;53.440;10.390;2023-02-15T01:58:55;39.00;;;17.95;;
77324;SDS011;66387;53.440;10.390;2023-02-15T02:01:25;56.33;;;19.25;;
77324;SDS011;66387;53.440;10.390;2023-02-15T02:06:29;45.53;;;19.23;;
77324;SDS011;66387;53.440;10.390;2023-02-15T02:08:55;67.57;;;20.55;;
77324;SDS011;66387;53.440;10.390;2023-02-15T02:11:21;34.38;;;17.40;;
77324;SDS011;66387;53.440;10.390;2023-02-15T02:13:47;47.25;;;18.85;;
77324;SDS011;66387;53.440;10.390;2023-02-15T02:35:45;45.58;;;15.45;;
77324;SDS011;66387;53.440;10.390;2023-02-15T02:41:25;36.10;;;16.52;;
77324;SDS011;66387;53.440;10.390;2023-02-15T02:46:30;44.35;;;16.05;;
77324;SDS011;66387;53.440;10.390;2023-02-15T02:49:00;28.50;;;16.23;;
77324;SDS011;66387;53.440;10.390;2023-02-15T02:51:27;29.02;;;16.55;;
77324;SDS011;66387;53.440;10.390;2023-02-15T02:53:53;27.67;;;14.80;;
77324;SDS011;66387;53.440;10.390;2023-02-15T02:56:29;25.75;;;14.77;;
77324;SDS011;66387;53.440;10.390;2023-02-15T02:59:01;30.02;;;14.98;;
77324;SDS011;66387;53.440;10.390;2023-02-15T03:01:34;34.80;;;14.98;;
77324;SDS011;66387;53.440;10.390;2023-02-15T03:04:09;25.33;;;15.05;;
77324;SDS011;66387;53.440;10.390;2023-02-15T03:06:50;24.85;;;14.77;;
77324;SDS011;66387;53.440;10.390;2023-02-15T03:09:25;36.38;;;15.77;;
77324;SDS011;66387;53.440;10.390;2023-02-15T03:11:59;24.35;;;14.73;;
77324;SDS011;66387;53.440;10.390;2023-02-15T03:14:25;25.50;;;14.45;;
77324;SDS011;66387;53.440;10.390;2023-02-15T03:16:50;31.77;;;15.82;;
77324;SDS011;66387;53.440;10.390;2023-02-15T03:19:27;46.35;;;16.85;;
77324;SDS011;66387;53.440;10.390;2023-02-15T03:21:56;35.42;;;15.68;;
77324;SDS011;66387;53.440;10.390;2023-02-15T03:24:41;32.97;;;15.60;;
77324;SDS011;66387;53.440;10.390;2023-02-15T03:27:16;26.90;;;15.32;;
77324;SDS011;66387;53.440;10.390;2023-02-15T03:29:46;39.03;;;16.65;;
77324;SDS011;66387;53.440;10.390;2023-02-15T03:32:14;26.27;;;15.68;;
77324;SDS011;66387;53.440;10.390;2023-02-15T03:34:40;30.48;;;16.58;;
77324;SDS011;66387;53.440;10.390;2023-02-15T03:42:33;26.98;;;15.45;;
77324;SDS011;66387;53.440;10.390;2023-02-15T03:45:04;31.80;;;16.75;;
77324;SDS011;66387;53.440;10.390;2023-02-15T03:47:37;25.40;;;15.07;;
77324;SDS011;66387;53.440;10.390;2023-02-15T03:50:26;26.10;;;15.35;;
77324;SDS011;66387;53.440;10.390;2023-02-15T03:53:14;26.45;;;14.80;;
77324;SDS011;66387;53.440;10.390;2023-02-15T03:55:46;29.38;;;15.70;;
77324;SDS011;66387;53.440;10.390;2023-02-15T03:58:12;39.55;;;17.45;;
77324;SDS011;66387;53.440;10.390;2023-02-15T04:01:00;25.00;;;14.63;;
77324;SDS011;66387;53.440;10.390;2023-02-15T04:03:59;32.53;;;14.85;;
77324;SDS011;66387;53.440;10.390;2023-02-15T04:06:32;28.27;;;17.13;;
77324;SDS011;66387;53.440;10.390;2023-02-15T04:08:57;31.13;;;16.47;;
77324;SDS011;66387;53.440;10.390;2023-02-15T04:11:41;28.55;;;15.18;;
77324;SDS011;66387;53.440;10.390;2023-02-15T04:14:06;25.53;;;15.73;;
77324;SDS011;66387;53.440;10.390;2023-02-15T04:16:50;28.73;;;14.40;;
77324;SDS011;66387;53.440;10.390;2023-02-15T04:19:15;33.77;;;16.73;;
77324;SDS011;66387;53.440;10.390;2023-02-15T04:21:59;38.42;;;17.27;;
77324;SDS011;66387;53.440;10.390;2023-02-15T04:24:43;34.67;;;19.23;;
77324;SDS011;66387;53.440;10.390;2023-02-15T04:27:27;38.58;;;15.90;;
77324;SDS011;66387;53.440;10.390;2023-02-15T04:29:52;50.67;;;15.47;;
77324;SDS011;66387;53.440;10.390;2023-02-15T04:32:17;34.57;;;15.93;;
77324;SDS011;66387;53.440;10.390;2023-02-15T04:34:43;39.93;;;16.27;;
77324;SDS011;66387;53.440;10.390;2023-02-15T04:37:08;31.33;;;15.77;;
77324;SDS011;66387;53.440;10.390;2023-02-15T04:39:33;34.27;;;16.80;;
77324;SDS011;66387;53.440;10.390;2023-02-15T04:41:58;45.10;;;16.47;;
77324;SDS011;66387;53.440;10.390;2023-02-15T04:44:24;42.00;;;15.77;;
77324;SDS011;66387;53.440;10.390;2023-02-15T04:46:49;42.63;;;14.93;;
77324;SDS011;66387;53.440;10.390;2023-02-15T04:49:14;48.93;;;14.37;;
77324;SDS011;66387;53.440;10.390;2023-02-15T04:51:39;31.90;;;14.53;;
77324;SDS011;66387;53.440;10.390;2023-02-15T04:54:05;28.17;;;16.30;;
77324;SDS011;66387;53.440;10.390;2023-02-15T04:56:30;24.58;;;13.13;;
77324;SDS011;66387;53.440;10.390;2023-02-15T04:58:57;21.80;;;12.45;;
77324;SDS011;66387;53.440;10.390;2023-02-15T05:01:23;26.77;;;13.97;;
77324;SDS011;66387;53.440;10.390;2023-02-15T05:03:48;29.03;;;13.97;;
77324;SDS011;66387;53.440;10.390;2023-02-15T05:06:13;26.77;;;13.40;;
77324;SDS011;66387;53.440;10.390;2023-02-15T05:08:39;23.30;;;13.27;;
77324;SDS011;66387;53.440;10.390;2023-02-15T05:11:04;20.90;;;11.85;;
77324;SDS011;66387;53.440;10.390;2023-02-15T05:13:29;22.20;;;12.80;;
77324;SDS011;66387;53.440;10.390;2023-02-15T05:15:54;36.57;;;13.90;;
77324;SDS011;66387;53.440;10.390;2023-02-15T05:18:20;28.53;;;12.73;;
77324;SDS011;66387;53.440;10.390;2023-02-15T05:20:46;19.63;;;11.63;;
77324;SDS011;66387;53.440;10.390;2023-02-15T05:23:12;20.10;;;12.60;;
77324;SDS011;66387;53.440;10.390;2023-02-15T05:25:38;18.00;;;12.02;;
77324;SDS011;66387;53.440;10.390;2023-02-15T05:28:22;22.58;;;12.23;;
77324;SDS011;66387;53.440;10.390;2023-02-15T05:30:50;40.40;;;17.38;;
77324;SDS011;66387;53.440;10.390;2023-02-15T05:33:26;34.20;;;18.17;;
77324;SDS011;66387;53.440;10.390;2023-02-15T05:35:52;31.90;;;14.07;;
77324;SDS011;66387;53.440;10.390;2023-02-15T05:38:17;37.77;;;14.40;;
77324;SDS011;66387;53.440;10.390;2023-02-15T05:40:42;40.03;;;14.13;;
77324;SDS011;66387;53.440;10.390;2023-02-15T05:43:07;45.80;;;12.87;;
77324;SDS011;66387;53.440;10.390;2023-02-15T05:45:33;60.58;;;13.55;;
77324;SDS011;66387;53.440;10.390;2023-02-15T05:47:58;26.87;;;13.67;;
77324;SDS011;66387;53.440;10.390;2023-02-15T05:50:24;26.27;;;14.55;;
77324;SDS011;66387;53.440;10.390;2023-02-15T05:52:49;24.60;;;12.35;;
77324;SDS011;66387;53.440;10.390;2023-02-15T05:55:15;38.53;;;13.97;;
77324;SDS011;66387;53.440;10.390;2023-02-15T05:57:40;28.67;;;14.85;;
77324;SDS011;66387;53.440;10.390;2023-02-15T06:00:05;29.00;;;12.93;;
77324;SDS011;66387;53.440;10.390;2023-02-15T06:02:34;46.25;;;14.07;;
77324;SDS011;66387;53.440;10.390;2023-02-15T06:05:00;38.83;;;14.70;;
77324;SDS011;66387;53.440;10.390;2023-02-15T06:07:26;37.50;;;13.88;;
77324;SDS011;66387;53.440;10.390;2023-02-15T06:09:51;29.73;;;13.57;;
77324;SDS011;66387;53.440;10.390;2023-02-15T06:12:16;32.30;;;15.33;;
77324;SDS011;66387;53.440;10.390;2023-02-15T06:14:41;23.45;;;13.75;;
77324;SDS011;66387;53.440;10.390;2023-02-15T06:17:07;30.60;;;12.80;;
77324;SDS011;66387;53.440;10.390;2023-02-15T06:19:32;19.27;;;11.93;;
77324;SDS011;66387;53.440;10.390;2023-02-15T06:21:57;27.37;;;12.83;;
77324;SDS011;66387;53.440;10.390;2023-02-15T06:24:22;22.97;;;12.73;;
77324;SDS011;66387;53.440;10.390;2023-02-15T06:26:48;40.30;;;13.03;;
77324;SDS011;66387;53.440;10.390;2023-02-15T06:29:13;24.83;;;11.87;;
77324;SDS011;66387;53.440;10.390;2023-02-15T06:31:38;22.08;;;11.75;;
77324;SDS011;66387;53.440;10.390;2023-02-15T06:34:03;24.70;;;11.87;;
77324;SDS011;66387;53.440;10.390;2023-02-15T06:36:29;26.97;;;12.13;;
77324;SDS011;66387;53.440;10.390;2023-02-15T06:38:55;35.13;;;13.45;;
77324;SDS011;66387;53.440;10.390;2023-02-15T06:41:21;37.30;;;13.25;;
77324;SDS011;66387;53.440;10.390;2023-02-15T06:43:47;24.35;;;12.65;;
77324;SDS011;66387;53.440;10.390;2023-02-15T06:46:12;24.23;;;12.77;;
77324;SDS011;66387;53.440;10.390;2023-02-15T06:48:38;18.73;;;11.70;;
77324;SDS011;66387;53.440;10.390;2023-02-15T06:51:03;20.27;;;12.30;;
77324;SDS011;66387;53.440;10.390;2023-02-15T06:53:28;26.97;;;10.97;;
77324;SDS011;66387;53.440;10.390;2023-02-15T06:56:00;22.92;;;12.10;;
77324;SDS011;66387;53.440;10.390;2023-02-15T06:58:27;17.42;;;10.25;;
77324;SDS011;66387;53.440;10.390;2023-02-15T07:00:53;18.10;;;10.98;;
77324;SDS011;66387;53.440;10.390;2023-02-15T07:03:18;17.57;;;11.53;;
77324;SDS011;66387;53.440;10.390;2023-02-15T07:05:44;19.60;;;10.27;;
77324;SDS011;66387;53.440;10.390;2023-02-15T07:08:10;17.30;;;10.70;;
77324;SDS011;66387;53.440;10.390;2023-02-15T07:10:35;22.73;;;12.85;;
77324;SDS011;66387;53.440;10.390;2023-02-15T07:13:01;22.20;;;10.53;;
77324;SDS011;66387;53.440;10.390;2023-02-15T07:15:26;18.45;;;11.13;;
77324;SDS011;66387;53.440;10.390;2023-02-15T07:17:51;21.83;;;10.67;;
77324;SDS011;66387;53.440;10.390;2023-02-15T07:20:18;27.07;;;11.47;;
77324;SDS011;66387;53.440;10.390;2023-02-15T07:22:45;18.67;;;10.25;;
77324;SDS011;66387;53.440;10.390;2023-02-15T07:25:11;32.67;;;12.80;;
77324;SDS011;66387;53.440;10.390;2023-02-15T07:27:37;17.55;;;10.20;;
77324;SDS011;66387;53.440;10.390;2023-02-15T07:30:03;17.90;;;11.43;;
77324;SDS011;66387;53.440;10.390;2023-02-15T07:32:30;26.17;;;12.95;;
77324;SDS011;66387;53.440;10.390;2023-02-15T07:34:56;28.08;;;11.60;;
77324;SDS011;66387;53.440;10.390;2023-02-15T07:37:22;27.45;;;12.13;;
77324;SDS011;66387;53.440;10.390;2023-02-15T07:39:47;30.40;;;13.48;;
77324;SDS011;66387;53.440;10.390;2023-02-15T07:42:13;24.00;;;13.67;;
77324;SDS011;66387;53.440;10.390;2023-02-15T07:44:38;22.45;;;12.30;;
77324;SDS011;66387;53.440;10.390;2023-02-15T07:47:03;21.37;;;12.27;;
77324;SDS011;66387;53.440;10.390;2023-02-15T07:49:29;22.67;;;12.20;;
77324;SDS011;66387;53.440;10.390;2023-02-15T07:51:54;21.15;;;12.02;;
77324;SDS011;66387;53.440;10.390;2023-02-15T07:54:19;21.70;;;13.40;;
77324;SDS011;66387;53.440;10.390;2023-02-15T07:56:45;20.17;;;12.30;;
77324;SDS011;66387;53.440;10.390;2023-02-15T07:59:10;21.38;;;11.75;;
77324;SDS011;66387;53.440;10.390;2023-02-15T08:01:36;19.73;;;12.68;;
77324;SDS011;66387;53.440;10.390;2023-02-15T08:04:03;16.65;;;10.68;;
77324;SDS011;66387;53.440;10.390;2023-02-15T08:06:35;21.33;;;12.25;;
77324;SDS011;66387;53.440;10.390;2023-02-15T08:09:02;14.40;;;9.10;;
77324;SDS011;66387;53.440;10.390;2023-02-15T08:11:30;19.02;;;11.05;;
77324;SDS011;66387;53.440;10.390;2023-02-15T08:13:58;21.83;;;11.77;;
77324;SDS011;66387;53.440;10.390;2023-02-15T08:16:29;15.27;;;10.00;;
77324;SDS011;66387;53.440;10.390;2023-02-15T08:18:54;16.30;;;10.50;;
77324;SDS011;66387;53.440;10.390;2023-02-15T08:21:21;20.45;;;11.82;;
77324;SDS011;66387;53.440;10.390;2023-02-15T08:23:46;21.05;;;10.60;;
77324;SDS011;66387;53.440;10.390;2023-02-15T08:26:12;34.30;;;10.57;;
77324;SDS011;66387;53.440;10.390;2023-02-15T08:28:38;19.27;;;10.77;;
77324;SDS011;66387;53.440;10.390;2023-02-15T08:31:07;23.75;;;12.93;;
77324;SDS011;66387;53.440;10.390;2023-02-15T08:33:34;17.00;;;10.55;;
77324;SDS011;66387;53.440;10.390;2023-02-15T08:36:04;15.25;;;10.10;;
77324;SDS011;66387;53.440;10.390;2023-02-15T08:38:32;19.52;;;11.27;;
77324;SDS011;66387;53.440;10.390;2023-02-15T08:40:58;17.60;;;10.48;;
77324;SDS011;66387;53.440;10.390;2023-02-15T08:43:34;20.33;;;11.93;;
77324;SDS011;66387;53.440;10.390;2023-02-15T08:45:59;17.00;;;10.27;;
77324;SDS011;66387;53.440;10.390;2023-02-15T08:48:24;16.87;;;10.03;;
77324;SDS011;66387;53.440;10.390;2023-02-15T08:50:49;34.13;;;13.93;;
77324;SDS011;66387;53.440;10.390;2023-02-15T08:53:14;19.60;;;12.20;;
77324;SDS011;66387;53.440;10.390;2023-02-15T08:55:40;19.87;;;10.87;;
77324;SDS011;66387;53.440;10.390;2023-02-15T08:58:05;24.02;;;11.77;;
77324;SDS011;66387;53.440;10.390;2023-02-15T09:00:30;31.75;;;11.70;;
77324;SDS011;66387;53.440;10.390;2023-02-15T09:02:56;19.02;;;11.30;;
77324;SDS011;66387;53.440;10.390;2023-02-15T09:05:21;29.70;;;14.77;;
77324;SDS011;66387;53.440;10.390;2023-02-15T09:07:46;22.50;;;14.10;;
77324;SDS011;66387;53.440;10.390;2023-02-15T09:10:11;21.73;;;14.47;;
77324;SDS011;66387;53.440;10.390;2023-02-15T09:12:37;22.17;;;11.77;;
77324;SDS011;66387;53.440;10.390;2023-02-15T09:15:02;24.52;;;15.45;;
77324;SDS011;66387;53.440;10.390;2023-02-15T09:17:28;28.40;;;14.15;;
77324;SDS011;66387;53.440;10.390;2023-02-15T09:19:53;23.10;;;14.20;;
77324;SDS011;66387;53.440;10.390;2023-02-15T09:22:19;32.05;;;20.08;;
77324;SDS011;66387;53.440;10.390;2023-02-15T09:24:44;22.60;;;13.95;;
77324;SDS011;66387;53.440;10.390;2023-02-15T09:27:09;23.38;;;12.52;;
77324;SDS011;66387;53.440;10.390;2023-02-15T09:29:36;22.00;;;12.07;;
77324;SDS011;66387;53.440;10.390;2023-02-15T09:32:01;19.08;;;12.38;;
77324;SDS011;66387;53.440;10.390;2023-02-15T09:34:26;20.50;;;11.82;;
77324;SDS011;66387;53.440;10.390;2023-02-15T09:36:52;20.23;;;11.95;;
77324;SDS011;66387;53.440;10.390;2023-02-15T09:39:25;18.73;;;12.45;;
77324;SDS011;66387;53.440;10.390;2023-02-15T09:55:24;21.60;;;13.43;;
77324;SDS011;66387;53.440;10.390;2023-02-15T10:12:48;21.85;;;14.60;;
77324;SDS011;66387;53.440;10.390;2023-02-15T10:15:23;22.58;;;13.82;;
77324;SDS011;66387;53.440;10.390;2023-02-15T10:20:52;19.83;;;12.25;;
77324;SDS011;66387;53.440;10.390;2023-02-15T10:26:04;22.90;;;12.68;;
77324;SDS011;66387;53.440;10.390;2023-02-15T10:28:42;20.80;;;11.90;;
77324;SDS011;66387;53.440;10.390;2023-02-15T10:33:47;24.40;;;14.40;;
77324;SDS011;66387;53.440;10.390;2023-02-15T10:39:26;24.02;;;13.65;;
77324;SDS011;66387;53.440;10.390;2023-02-15T10:42:30;30.20;;;17.63;;
77324;SDS011;66387;53.440;10.390;2023-02-15T10:47:58;20.27;;;12.27;;
77324;SDS011;66387;53.440;10.390;2023-02-15T10:50:35;24.45;;;14.50;;
77324;SDS011;66387;53.440;10.390;2023-02-15T10:55:55;29.65;;;15.00;;
77324;SDS011;66387;53.440;10.390;2023-02-15T11:01:32;29.33;;;14.57;;
77324;SDS011;66387;53.440;10.390;2023-02-15T11:06:57;23.17;;;13.63;;
77324;SDS011;66387;53.440;10.390;2023-02-15T11:09:29;26.42;;;16.23;;
77324;SDS011;66387;53.440;10.390;2023-02-15T11:12:02;25.73;;;15.07;;
77324;SDS011;66387;53.440;10.390;2023-02-15T11:14:42;22.33;;;13.65;;
77324;SDS011;66387;53.440;10.390;2023-02-15T11:17:19;26.58;;;14.35;;
77324;SDS011;66387;53.440;10.390;2023-02-15T11:20:08;28.95;;;16.42;;
77324;SDS011;66387;53.440;10.390;2023-02-15T11:22:43;24.45;;;14.75;;
77324;SDS011;66387;53.440;10.390;2023-02-15T11:25:19;25.60;;;15.15;;
77324;SDS011;66387;53.440;10.390;2023-02-15T11:27:49;33.00;;;19.90;;
77324;SDS011;66387;53.440;10.390;2023-02-15T11:30:25;35.92;;;19.42;;
77324;SDS011;66387;53.440;10.390;2023-02-15T11:32:55;27.70;;;15.63;;
77324;SDS011;66387;53.440;10.390;2023-02-15T11:38:19;27.48;;;15.77;;
77324;SDS011;66387;53.440;10.390;2023-02-15T11:40:47;30.42;;;17.17;;
77324;SDS011;66387;53.440;10.390;2023-02-15T11:43:22;40.25;;;22.35;;
77324;SDS011;66387;53.440;10.390;2023-02-15T11:45:54;27.15;;;17.70;;
77324;SDS011;66387;53.440;10.390;2023-02-15T11:48:19;28.80;;;17.42;;
77324;SDS011;66387;53.440;10.390;2023-02-15T11:50:44;30.92;;;17.77;;
77324;SDS011;66387;53.440;10.390;2023-02-15T11:53:18;33.03;;;19.65;;
77324;SDS011;66387;53.440;10.390;2023-02-15T11:55:52;30.02;;;17.65;;
77324;SDS011;66387;53.440;10.390;2023-02-15T11:58:39;33.75;;;17.00;;
77324;SDS011;66387;53.440;10.390;2023-02-15T12:01:21;34.75;;;17.73;;
77324;SDS011;66387;53.440;10.390;2023-02-15T12:03:59;28.45;;;17.58;;
77324;SDS011;66387;53.440;10.390;2023-02-15T12:06:32;24.25;;;15.05;;
77324;SDS011;66387;53.440;10.390;2023-02-15T12:11:35;29.50;;;17.55;;
77324;SDS011;66387;53.440;10.390;2023-02-15T12:14:03;25.75;;;16.35;;
77324;SDS011;66387;53.440;10.390;2023-02-15T12:16:29;33.25;;;17.95;;
77324;SDS011;66387;53.440;10.390;2023-02-15T12:19:04;30.75;;;19.67;;
77324;SDS011;66387;53.440;10.390;2023-02-15T12:21:30;31.05;;;19.20;;
77324;SDS011;66387;53.440;10.390;2023-02-15T12:24:18;30.27;;;17.55;;
77324;SDS011;66387;53.440;10.390;2023-02-15T12:26:44;29.88;;;16.92;;
77324;SDS011;66387;53.440;10.390;2023-02-15T12:29:22;32.45;;;20.02;;
77324;SDS011;66387;53.440;10.390;2023-02-15T12:31:52;32.30;;;19.83;;
77324;SDS011;66387;53.440;10.390;2023-02-15T12:34:22;34.67;;;19.92;;
77324;SDS011;66387;53.440;10.390;2023-02-15T12:36:50;33.40;;;17.15;;
77324;SDS011;66387;53.440;10.390;2023-02-15T12:39:24;28.25;;;17.10;;
77324;SDS011;66387;53.440;10.390;2023-02-15T12:44:19;27.77;;;18.67;;
77324;SDS011;66387;53.440;10.390;2023-02-15T12:49:32;30.38;;;19.20;;
77324;SDS011;66387;53.440;10.390;2023-02-15T12:52:03;31.90;;;20.85;;
77324;SDS011;66387;53.440;10.390;2023-02-15T12:54:34;27.42;;;16.38;;
77324;SDS011;66387;53.440;10.390;2023-02-15T12:57:14;24.85;;;14.82;;
77324;SDS011;66387;53.440;10.390;2023-02-15T12:59:54;24.13;;;15.02;;
77324;SDS011;66387;53.440;10.390;2023-02-15T13:07:59;24.05;;;17.38;;
77324;SDS011;66387;53.440;10.390;2023-02-15T13:10:32;24.13;;;15.40;;
77324;SDS011;66387;53.440;10.390;2023-02-15T13:13:00;21.30;;;14.70;;
77324;SDS011;66387;53.440;10.390;2023-02-15T13:17:57;20.83;;;13.40;;
77324;SDS011;66387;53.440;10.390;2023-02-15T13:20:23;24.27;;;16.00;;
77324;SDS011;66387;53.440;10.390;2023-02-15T13:22:52;20.92;;;14.75;;
77324;SDS011;66387;53.440;10.390;2023-02-15T13:25:22;19.48;;;14.18;;
77324;SDS011;66387;53.440;10.390;2023-02-15T13:27:52;21.98;;;14.88;;
77324;SDS011;66387;53.440;10.390;2023-02-15T13:30:25;21.15;;;14.35;;
77324;SDS011;66387;53.440;10.390;2023-02-15T13:33:02;21.73;;;14.57;;
77324;SDS011;66387;53.440;10.390;2023-02-15T13:35:35;21.45;;;14.20;;
77324;SDS011;66387;53.440;10.390;2023-02-15T13:38:11;21.42;;;14.00;;
77324;SDS011;66387;53.440;10.390;2023-02-15T13:40:48;22.15;;;15.77;;
77324;SDS011;66387;53.440;10.390;2023-02-15T13:43:20;20.25;;;14.30;;
77324;SDS011;66387;53.440;10.390;2023-02-15T13:46:16;22.90;;;14.50;;
77324;SDS011;66387;53.440;10.390;2023-02-15T14:00:25;16.73;;;12.93;;
77324;SDS011;66387;53.440;10.390;2023-02-15T14:08:27;20.27;;;14.82;;
77324;SDS011;66387;53.440;10.390;2023-02-15T14:19:13;19.42;;;12.80;;
77324;SDS011;66387;53.440;10.390;2023-02-15T14:24:29;21.20;;;14.57;;
77324;SDS011;66387;53.440;10.390;2023-02-15T14:30:09;18.60;;;12.98;;
77324;SDS011;66387;53.440;10.390;2023-02-15T14:32:41;16.75;;;13.68;;
77324;SDS011;66387;53.440;10.390;2023-02-15T14:35:13;21.38;;;14.68;;
77324;SDS011;66387;53.440;10.390;2023-02-15T14:43:30;21.67;;;14.70;;
77324;SDS011;66387;53.440;10.390;2023-02-15T14:47:12;21.55;;;14.15;;
77324;SDS011;66387;53.440;10.390;2023-02-15T14:49:17;20.95;;;13.88;;
77324;SDS011;66387;53.440;10.390;2023-02-15T14:56:42;22.00;;;15.55;;
77324;SDS011;66387;53.440;10.390;2023-02-15T14:59:19;25.50;;;15.82;;
77324;SDS011;66387;53.440;10.390;2023-02-15T15:01:55;24.00;;;16.35;;
77324;SDS011;66387;53.440;10.390;2023-02-15T15:04:24;25.40;;;16.48;;
77324;SDS011;66387;53.440;10.390;2023-02-15T15:07:37;27.48;;;17.67;;
77324;SDS011;66387;53.440;10.390;2023-02-15T15:09:46;30.02;;;20.02;;
77324;SDS011;66387;53.440;10.390;2023-02-15T15:14:51;27.02;;;17.75;;
77324;SDS011;66387;53.440;10.390;2023-02-15T15:17:51;25.48;;;18.33;;
77324;SDS011;66387;53.440;10.390;2023-02-15T15:22:50;24.20;;;15.60;;
77324;SDS011;66387;53.440;10.390;2023-02-15T15:25:43;28.33;;;17.42;;
77324;SDS011;66387;53.440;10.390;2023-02-15T15:42:12;21.80;;;15.35;;
77324;SDS011;66387;53.440;10.390;2023-02-15T15:47:30;25.63;;;17.88;;
77324;SDS011;66387;53.440;10.390;2023-02-15T15:50:11;27.67;;;18.25;;
77324;SDS011;66387;53.440;10.390;2023-02-15T15:52:44;28.92;;;17.95;;
77324;SDS011;66387;53.440;10.390;2023-02-15T15:55:15;25.75;;;17.63;;
77324;SDS011;66387;53.440;10.390;2023-02-15T15:57:43;29.02;;;17.10;;
77324;SDS011;66387;53.440;10.390;2023-02-15T16:00:46;27.65;;;17.25;;
77324;SDS011;66387;53.440;10.390;2023-02-15T16:03:13;24.58;;;17.60;;
77324;SDS011;66387;53.440;10.390;2023-02-15T16:05:39;25.88;;;18.00;;
77324;SDS011;66387;53.440;10.390;2023-02-15T16:08:05;26.77;;;16.85;;
77324;SDS011;66387;53.440;10.390;2023-02-15T16:10:31;27.15;;;16.05;;
77324;SDS011;66387;53.440;10.390;2023-02-15T16:12:58;24.98;;;16.88;;
77324;SDS011;66387;53.440;10.390;2023-02-15T16:15:27;24.40;;;17.77;;
77324;SDS011;66387;53.440;10.390;2023-02-15T16:17:56;24.17;;;15.88;;
77324;SDS011;66387;53.440;10.390;2023-02-15T16:20:30;26.48;;;17.90;;
77324;SDS011;66387;53.440;10.390;2023-02-15T16:23:19;28.38;;;18.40;;
77324;SDS011;66387;53.440;10.390;2023-02-15T16:28:40;23.85;;;15.57;;
77324;SDS011;66387;53.440;10.390;2023-02-15T16:31:14;23.88;;;16.35;;
77324;SDS011;66387;53.440;10.390;2023-02-15T16:33:41;23.48;;;15.70;;
77324;SDS011;66387;53.440;10.390;2023-02-15T16:36:11;23.83;;;15.73;;
77324;SDS011;66387;53.440;10.390;2023-02-15T16:41:13;21.33;;;15.85;;
77324;SDS011;66387;53.440;10.390;2023-02-15T16:43:42;23.98;;;16.92;;
77324;SDS011;66387;53.440;10.390;2023-02-15T16:46:11;23.88;;;16.15;;
77324;SDS011;66387;53.440;10.390;2023-02-15T16:48:43;26.83;;;17.17;;
77324;SDS011;66387;53.440;10.390;2023-02-15T16:51:18;22.88;;;15.77;;
77324;SDS011;66387;53.440;10.390;2023-02-15T16:53:47;22.92;;;16.20;;
77324;SDS011;66387;53.440;10.390;2023-02-15T16:56:13;29.35;;;19.55;;
77324;SDS011;66387;53.440;10.390;2023-02-15T16:58:41;35.95;;;21.10;;
77324;SDS011;66387;53.440;10.390;2023-02-15T17:01:09;39.47;;;24.30;;
77324;SDS011;66387;53.440;10.390;2023-02-15T17:03:37;38.85;;;24.48;;
77324;SDS011;66387;53.440;10.390;2023-02-15T17:06:04;26.60;;;18.23;;
77324;SDS011;66387;53.440;10.390;2023-02-15T17:08:45;24.45;;;16.88;;
77324;SDS011;66387;53.440;10.390;2023-02-15T17:16:31;25.40;;;19.13;;
77324;SDS011;66387;53.440;10.390;2023-02-15T17:19:07;28.15;;;20.33;;
77324;SDS011;66387;53.440;10.390;2023-02-15T17:21:42;26.40;;;17.70;;